Minturn, Arkansas
Current Conditions -  °F | °C
As of 7:15 PM on Sunday 23 Nov 2014 (Local Time) from KARG Reporting Station
Overcast Overcast  
Wind Chill: 15°   Ceiling: 500
Heat Index: 15°   Visibility: 10mi
Dew Point: 13°   Wind: 15mph
Humidity: 88%   Direction: 210°SSW
Pressure: 29.37"   Gusts: NA
Location:  35.97°N, 91.03°W
Report Text: KARG 240115Z AUTO 21013KT 10SM OVC005 15/13 A2937 RMK AO1
Loading
Personal Weather Stations






























Interactive Weather Map New forecast layout! Learn more

10-Day Weather Forecast

Advertisements
Track Severe Weather on mobile